Terminal Aerodrome Forecast
Issued by NWS

Home | Current Version | Previous Version | Text Only | Print | Product List | Glossary On
Versions: 1 2 3 4 5 6 7 8 9 10 11 12 13 14 15 16 17 18 19 20 21 22 23 24 25 26
489
FTUS42 KCAE 061136
TAFOGB
TAF
KOGB 061136Z 0612/0712 28006KT P6SM BKN050
     FM061400 31011G17KT P6SM BKN050
     FM061800 29010G16KT P6SM VCSH SCT045 BKN060
     FM062300 30005KT P6SM SCT060=

USA.gov is the U.S. government's official web portal to all federal, state and local government web resources and services.